Time;durP1;ratioP1;P1;durP2;ratioP2;P2;SDS_P1;SDS_P2;PMS_P1;PMS_P2;Temp;Humidity;BMP_temperature;BMP_pressure;BME280_temperature;BME280_humidity;BME280_pressure;Samples;Min_cycle;Max_cycle;Signal;HPM_P1;HPM_P2
2023/05/20 07:23:11;;;;;;;6.97;3.60;;;;;;;-145.79;54.16;77936.91;5272358;28;20414;-70
2023/05/20 07:25:42;;;;;;;5.53;3.95;;;;;;;-145.79;51.76;77951.72;5252026;28;20365;-71
2023/05/20 07:28:15;;;;;;;6.25;3.40;;;;;;;-145.79;51.97;77939.00;5259395;28;20033;-71
2023/05/20 07:30:49;;;;;;;5.43;3.63;;;;;;;-145.79;52.53;77915.69;5258038;28;20355;-71
2023/05/20 07:33:20;;;;;;;5.60;3.67;;;;;;;-145.79;51.05;77915.69;5258599;28;20345;-71
2023/05/20 07:35:53;;;;;;;5.70;3.72;;;;;;;-145.79;51.37;77902.97;5270023;28;20025;-72
2023/05/20 07:38:24;;;;;;;7.05;3.85;;;;;;;-145.79;50.71;77892.38;5258812;28;20091;-71
2023/05/20 07:40:56;;;;;;;5.72;3.20;;;;;;;-145.79;50.99;77888.13;5258963;28;20021;-70
2023/05/20 07:43:29;;;;;;;5.38;3.92;;;;;;;-145.79;49.97;77879.66;5246651;28;20030;-70
2023/05/20 07:46:00;;;;;;;5.63;3.17;;;;;;;-145.79;49.90;77873.31;5259058;28;20115;-70
2023/05/20 07:48:31;;;;;;;5.63;3.30;;;;;;;-145.79;50.19;77852.09;5259028;28;20037;-71
2023/05/20 07:51:03;;;;;;;4.57;2.90;;;;;;;-145.79;50.32;77841.50;5257971;28;20029;-71
2023/05/20 07:53:34;;;;;;;6.38;3.97;;;;;;;-145.79;49.10;77845.75;5258861;28;20124;-69
2023/05/20 07:56:06;;;;;;;5.95;3.38;;;;;;;-145.79;49.68;77835.13;5258999;28;20036;-70
2023/05/20 07:58:41;;;;;;;5.50;3.72;;;;;;;-145.79;49.01;77828.78;5256715;28;20029;-70
2023/05/20 08:01:12;;;;;;;5.90;3.42;;;;;;;-145.79;48.66;77822.41;5249008;28;20460;-70
2023/05/20 08:03:44;;;;;;;4.45;3.53;;;;;;;-145.79;48.25;77813.94;5257892;28;20029;-70
2023/05/20 08:06:16;;;;;;;6.28;3.63;;;;;;;-145.79;48.29;77813.94;5258225;28;20032;-71
2023/05/20 08:08:47;;;;;;;3.55;2.85;;;;;;;-145.79;48.54;77796.97;5257660;28;20037;-71
2023/05/20 08:11:20;;;;;;;6.32;3.17;;;;;;;-145.79;49.20;77792.75;5257730;28;20021;-71
2023/05/20 08:13:51;;;;;;;3.78;3.30;;;;;;;-145.79;48.05;77788.50;5256411;28;20105;-70
2023/05/20 08:16:23;;;;;;;5.45;3.22;;;;;;;-145.79;47.78;77784.25;5251117;28;20128;-70
2023/05/20 08:18:54;;;;;;;5.22;3.20;;;;;;;-145.79;47.41;77771.53;5253486;28;20025;-71
2023/05/20 08:21:26;;;;;;;8.32;3.88;;;;;;;-145.79;46.82;77763.06;5257967;28;20322;-70
2023/05/20 08:23:57;;;;;;;5.18;3.35;;;;;;;-145.79;46.88;77754.59;5257956;28;20045;-70
2023/05/20 08:26:28;;;;;;;4.22;3.30;;;;;;;-145.79;46.77;77750.34;5257744;28;20028;-70
2023/05/20 08:29:00;;;;;;;3.78;3.33;;;;;;;-145.79;47.02;77735.50;5258034;28;20500;-70
2023/05/20 08:31:31;;;;;;;5.70;3.42;;;;;;;-145.79;46.23;77720.66;5258000;28;20044;-70
2023/05/20 08:34:03;;;;;;;5.22;3.65;;;;;;;-145.79;46.27;77695.22;5234157;28;20512;-70
2023/05/20 08:36:34;;;;;;;5.32;3.35;;;;;;;-145.79;45.51;77703.72;5243149;28;20036;-70
2023/05/20 08:39:06;;;;;;;6.63;3.42;;;;;;;-145.79;45.35;77699.47;5242097;28;20044;-70
2023/05/20 08:41:38;;;;;;;8.88;7.28;;;;;;;-145.79;44.89;77686.75;5242464;28;20017;-68
2023/05/20 08:44:12;;;;;;;6.93;3.10;;;;;;;-145.79;45.45;77680.38;5244188;28;20369;-69
2023/05/20 08:46:45;;;;;;;4.55;3.42;;;;;;;-145.79;45.00;77695.22;5243357;28;20026;-70
2023/05/20 08:49:16;;;;;;;5.97;3.60;;;;;;;-145.79;45.31;77703.72;5242460;28;20498;-68
2023/05/20 08:51:48;;;;;;;4.10;3.70;;;;;;;-145.79;45.38;77695.22;5231169;28;20053;-69
2023/05/20 08:54:22;;;;;;;5.03;3.70;;;;;;;-145.79;45.09;77703.72;5242239;28;20021;-69
2023/05/20 08:56:54;;;;;;;6.55;3.60;;;;;;;-145.79;45.19;77684.63;5242977;28;20021;-69
2023/05/20 08:59:26;;;;;;;5.90;4.03;;;;;;;-145.79;45.39;77674.03;5242055;28;20375;-67
2023/05/20 09:01:57;;;;;;;7.28;3.47;;;;;;;-145.79;44.92;77674.03;5241823;28;20041;-69
2023/05/20 09:04:29;;;;;;;7.65;3.70;;;;;;;-145.79;44.72;77665.56;5243100;28;20376;-68
2023/05/20 09:07:00;;;;;;;4.57;3.53;;;;;;;-145.79;45.08;77654.97;5242356;28;20488;-69
2023/05/20 09:09:33;;;;;;;7.30;5.65;;;;;;;-145.79;44.68;77642.25;5240209;28;20028;-69
2023/05/20 09:12:05;;;;;;;7.55;3.80;;;;;;;-145.79;44.99;77652.84;5243496;28;20492;-69
2023/05/20 09:14:36;;;;;;;3.20;2.90;;;;;;;-145.79;44.39;77652.84;5242314;28;20027;-70
2023/05/20 09:17:09;;;;;;;11.40;8.80;;;;;;;-145.79;44.40;77629.53;5241549;28;20447;-71
2023/05/20 09:19:41;;;;;;;6.13;4.28;;;;;;;-145.79;44.60;77610.44;5241182;28;20048;-70
2023/05/20 09:22:23;;;;;;;4.57;3.20;;;;;;;-145.79;44.28;77610.44;5241757;28;20046;-70
2023/05/20 09:24:54;;;;;;;4.30;2.85;;;;;;;-145.79;43.25;77580.75;5231923;28;20026;-70
2023/05/20 09:27:25;;;;;;;5.32;3.47;;;;;;;-145.79;42.99;77574.41;5243053;28;20051;-69
2023/05/20 09:29:57;;;;;;;4.88;3.13;;;;;;;-145.79;42.80;77574.41;5242322;28;20036;-70
2023/05/20 09:32:28;;;;;;;8.98;2.75;;;;;;;-145.79;42.70;77565.94;5242977;28;20416;-70
2023/05/20 09:35:00;;;;;;;3.10;2.47;;;;;;;-145.79;42.45;77570.16;5242078;28;20017;-67
2023/05/20 09:37:34;;;;;;;3.58;2.88;;;;;;;-145.79;43.14;77563.81;5242904;28;20116;-68
2023/05/20 09:40:12;;;;;;;4.20;2.90;;;;;;;-145.79;43.01;77555.31;5242613;28;20025;-68
2023/05/20 09:42:51;;;;;;;4.05;3.17;;;;;;;-145.79;43.06;77534.13;5238148;28;20087;-68
2023/05/20 09:45:23;;;;;;;4.68;2.88;;;;;;;-145.79;42.38;77546.84;5241538;28;20449;-69
2023/05/20 09:47:55;;;;;;;4.57;3.28;;;;;;;-145.79;43.96;77555.31;5242417;28;20109;-67
2023/05/20 09:50:29;;;;;;;7.57;3.10;;;;;;;-145.79;42.89;77546.84;5241285;28;20030;-67
2023/05/20 09:53:02;;;;;;;5.07;3.17;;;;;;;-145.79;42.90;77542.59;5242268;28;20075;-66
2023/05/20 09:55:34;;;;;;;4.88;3.17;;;;;;;-145.79;42.91;77536.25;5242636;28;20433;-67
2023/05/20 09:58:08;;;;;;;3.95;3.35;;;;;;;-145.79;42.95;77525.66;5241151;28;20396;-67
2023/05/20 10:00:40;;;;;;;4.53;3.35;;;;;;;-145.79;42.70;77521.41;5241523;28;20029;-69
2023/05/20 10:03:12;;;;;;;6.43;3.42;;;;;;;-145.79;42.88;77521.41;5241962;28;20480;-68
2023/05/20 10:06:19;;;;;;;4.40;3.85;;;;;;;-145.79;42.76;77512.94;5241373;28;20033;-68
2023/05/20 10:09:15;;;;;;;8.80;3.75;;;;;;;-145.79;42.67;77508.69;5240868;28;20393;-69
2023/05/20 10:12:23;;;;;;;7.20;3.63;;;;;;;-145.79;42.99;77489.63;5240893;28;20037;-66
2023/05/20 10:15:39;;;;;;;5.65;3.50;;;;;;;-145.79;43.31;77500.22;5241859;28;20036;-68
2023/05/20 10:18:19;;;;;;;3.17;2.83;;;;;;;-145.79;42.62;77479.03;5199337;28;20031;-69
2023/05/20 10:20:50;;;;;;;4.90;2.92;;;;;;;-145.79;42.50;77476.91;5219713;28;20121;-69
2023/05/20 10:23:31;;;;;;;4.65;3.83;;;;;;;-145.79;42.36;77470.53;5220512;28;20500;-68
2023/05/20 10:26:05;;;;;;;5.50;3.10;;;;;;;-145.79;42.15;77483.25;5235930;28;20021;-69
2023/05/20 10:28:39;;;;;;;15.13;13.53;;;;;;;-145.79;42.02;77487.50;5241588;28;20033;-70
2023/05/20 10:31:20;;;;;;;8.00;4.18;;;;;;;-145.79;42.76;77495.97;5239979;28;20037;-69
2023/05/20 10:33:52;;;;;;;5.13;3.63;;;;;;;-145.79;42.31;77483.25;5238104;28;20056;-69
2023/05/20 10:36:30;;;;;;;5.47;3.20;;;;;;;-145.79;41.96;77453.59;5239778;28;20026;-69
2023/05/20 10:39:03;;;;;;;5.22;3.10;;;;;;;-145.79;41.54;77436.63;5240884;28;20048;-70
2023/05/20 10:41:36;;;;;;;3.50;2.47;;;;;;;-145.79;41.81;77430.25;5238750;28;20175;-69
2023/05/20 10:44:07;;;;;;;6.43;2.90;;;;;;;-145.79;41.81;77394.22;5221243;28;20088;-69
2023/05/20 10:46:44;;;;;;;5.47;2.85;;;;;;;-145.79;41.48;77385.75;5219734;28;20026;-69
2023/05/20 10:49:18;;;;;;;3.00;2.60;;;;;;;-145.79;40.85;77411.19;5225804;28;20119;-70
2023/05/20 10:51:50;;;;;;;7.80;3.65;;;;;;;-145.79;40.96;77396.34;5237702;28;20076;-70
2023/05/20 10:54:22;;;;;;;4.75;3.50;;;;;;;-145.79;40.81;77381.50;5241634;28;20036;-68
2023/05/20 10:56:53;;;;;;;6.75;2.70;;;;;;;-145.79;40.62;77370.91;5241074;28;20025;-68
2023/05/20 10:59:25;;;;;;;4.82;2.83;;;;;;;-145.79;40.92;77339.13;5227005;28;20488;-68
2023/05/20 11:01:56;;;;;;;4.28;2.90;;;;;;;-145.79;40.52;77368.78;5220484;28;20492;-69
2023/05/20 11:04:32;;;;;;;4.90;2.40;;;;;;;-145.79;41.04;77368.78;5221181;28;20064;-69
2023/05/20 11:07:03;;;;;;;5.20;2.45;;;;;;;-145.79;41.25;77402.72;5227603;28;20484;-70
2023/05/20 11:09:35;;;;;;;4.68;3.05;;;;;;;-145.79;41.83;77383.63;5241580;28;20033;-68
2023/05/20 11:12:06;;;;;;;4.80;2.70;;;;;;;-145.79;41.19;77368.78;5240636;28;20051;-68
2023/05/20 11:14:37;;;;;;;4.78;2.90;;;;;;;-145.79;41.72;77364.56;5237888;28;20030;-69
2023/05/20 11:17:16;;;;;;;7.03;4.07;;;;;;;-145.79;41.16;77360.31;5240502;28;20091;-70
2023/05/20 11:19:47;;;;;;;2.78;2.45;;;;;;;-145.79;41.22;77353.97;5240718;28;20389;-70
2023/05/20 11:22:19;;;;;;;4.43;2.88;;;;;;;-145.79;41.31;77347.59;5239686;28;20049;-68
2023/05/20 11:24:52;;;;;;;7.72;5.20;;;;;;;-145.79;41.42;77347.59;5240209;28;20049;-68
2023/05/20 11:27:24;;;;;;;4.38;2.70;;;;;;;-145.79;40.84;77326.41;5240446;28;20037;-68
2023/05/20 11:29:56;;;;;;;5.78;2.92;;;;;;;-145.79;40.70;77351.84;5240322;28;20040;-72
2023/05/20 11:32:27;;;;;;;3.83;3.00;;;;;;;-145.79;41.26;77330.66;5240537;28;20472;-71
2023/05/20 11:34:59;;;;;;;2.78;2.58;;;;;;;-145.79;41.06;77320.03;5239340;28;20488;-71
2023/05/20 11:37:30;;;;;;;3.75;3.00;;;;;;;-145.79;40.77;77292.50;5241040;28;20503;-71
2023/05/20 11:40:06;;;;;;;6.63;2.80;;;;;;;-145.79;41.52;77296.72;5237413;28;20054;-69
2023/05/20 11:42:37;;;;;;;15.98;14.52;;;;;;;-145.79;40.95;77292.50;5237326;28;20026;-70
2023/05/20 11:45:12;;;;;;;7.70;3.92;;;;;;;-145.79;40.79;77286.13;5238436;28;20478;-75
2023/05/20 11:47:43;;;;;;;8.18;5.25;;;;;;;-145.79;40.81;77269.19;5238655;28;20608;-71
2023/05/20 11:50:18;;;;;;;4.18;3.78;;;;;;;-145.79;40.79;77279.78;5237149;28;20076;-70
2023/05/20 11:53:01;;;;;;;4.97;3.15;;;;;;;-145.79;40.72;77294.59;5239939;28;20034;-71
2023/05/20 11:55:33;;;;;;;4.18;2.60;;;;;;;-145.79;41.30;77292.50;5239571;28;20056;-70
2023/05/20 11:58:04;;;;;;;3.40;2.90;;;;;;;-145.79;40.46;77269.19;5232592;28;20053;-71
2023/05/20 12:00:35;;;;;;;4.38;2.35;;;;;;;-145.79;41.15;77275.53;5238319;28;20037;-69
2023/05/20 12:03:07;;;;;;;7.00;2.88;;;;;;;-145.79;41.12;77267.06;5237245;28;20065;-69
2023/05/20 12:05:39;;;;;;;2.67;2.20;;;;;;;-145.79;40.88;77258.56;5235493;28;20025;-69
2023/05/20 12:08:10;;;;;;;4.75;2.72;;;;;;;-145.79;40.62;77258.56;5239367;28;20029;-69
2023/05/20 12:10:43;;;;;;;7.68;6.90;;;;;;;-145.79;40.58;77243.75;5240109;28;20028;-70
2023/05/20 12:13:15;;;;;;;3.45;2.78;;;;;;;-145.79;40.43;77214.06;5234789;28;20399;-69
2023/05/20 12:15:46;;;;;;;6.13;5.32;;;;;;;-145.79;40.26;77195.00;5245784;28;20032;-70
2023/05/20 12:18:17;;;;;;;4.15;3.50;;;;;;;-145.79;40.01;77169.56;5248517;28;20499;-69
2023/05/20 12:20:49;;;;;;;3.38;2.20;;;;;;;-145.79;40.17;77156.84;5242719;28;20080;-68
2023/05/20 12:23:20;;;;;;;3.22;2.70;;;;;;;-145.79;39.64;77167.44;5243108;28;20469;-69
2023/05/20 12:25:51;;;;;;;4.72;2.80;;;;;;;-145.79;39.78;77180.16;5243826;28;20107;-69
2023/05/20 12:28:23;;;;;;;8.13;5.30;;;;;;;-145.79;39.50;77186.50;5234134;28;20038;-68
2023/05/20 12:30:54;;;;;;;3.65;2.70;;;;;;;-145.79;39.67;77173.78;5238834;28;20476;-70
2023/05/20 12:33:26;;;;;;;6.78;4.32;;;;;;;-145.79;40.21;77169.56;5232171;28;20101;-69
2023/05/20 12:35:58;;;;;;;13.70;11.65;;;;;;;-145.79;39.39;77135.66;5222628;28;20033;-69
2023/05/20 12:38:29;;;;;;;3.38;2.75;;;;;;;-145.79;39.87;77144.13;5227882;28;20056;-73
2023/05/20 12:41:01;;;;;;;7.15;2.83;;;;;;;-145.79;39.31;77144.13;5239574;28;20061;-70
2023/05/20 12:43:32;;;;;;;2.75;2.20;;;;;;;-145.79;38.99;77118.69;5243017;28;20028;-69
2023/05/20 12:46:04;;;;;;;3.80;2.53;;;;;;;-145.79;39.31;77146.25;5242531;28;20345;-69
2023/05/20 12:48:38;;;;;;;4.07;2.78;;;;;;;-145.79;40.14;77122.94;5248364;28;20028;-70
2023/05/20 12:51:10;;;;;;;3.70;2.50;;;;;;;-145.79;39.61;77089.00;5241574;28;20030;-69
2023/05/20 12:53:41;;;;;;;3.28;2.85;;;;;;;-145.79;40.22;77078.41;5241933;28;20063;-69
2023/05/20 12:56:12;;;;;;;4.63;2.85;;;;;;;-145.79;39.99;77052.97;5242096;28;20032;-70
2023/05/20 12:58:44;;;;;;;4.03;2.92;;;;;;;-145.79;39.02;77067.81;5240111;28;20025;-70
2023/05/20 13:01:15;;;;;;;9.45;4.30;;;;;;;-145.79;39.10;77067.81;5241418;28;20037;-71
2023/05/20 13:03:47;;;;;;;15.05;11.30;;;;;;;-145.79;39.34;77072.06;5242670;28;20040;-70
2023/05/20 13:06:18;;;;;;;4.40;3.97;;;;;;;-145.79;39.34;77080.53;5241153;28;20440;-70
2023/05/20 13:08:50;;;;;;;5.30;3.17;;;;;;;-145.79;39.98;77080.53;5237432;28;20093;-68
2023/05/20 13:11:24;;;;;;;5.32;2.63;;;;;;;-145.79;39.81;77063.59;5241393;28;20447;-70
2023/05/20 13:13:58;;;;;;;7.57;2.40;;;;;;;-145.79;39.61;77065.69;5239214;28;20072;-70
2023/05/20 13:16:30;;;;;;;3.53;2.80;;;;;;;-145.79;39.29;77089.00;5240039;28;20040;-70
2023/05/20 13:19:01;;;;;;;4.70;3.42;;;;;;;-145.79;39.47;77080.53;5241765;28;20380;-69
2023/05/20 13:21:33;;;;;;;3.38;2.65;;;;;;;-145.79;39.29;77078.41;5235064;28;20088;-69
2023/05/20 13:24:04;;;;;;;4.10;2.90;;;;;;;-145.79;39.74;77084.78;5239658;28;20112;-68
2023/05/20 13:26:37;;;;;;;3.83;2.80;;;;;;;-145.79;39.31;77080.53;5242477;28;20026;-68
2023/05/20 13:29:09;;;;;;;3.58;3.08;;;;;;;-145.79;39.48;77074.19;5238409;28;20487;-70
2023/05/20 13:31:40;;;;;;;4.13;2.72;;;;;;;-145.79;39.57;77082.66;5238161;28;20452;-69
2023/05/20 13:34:12;;;;;;;18.60;5.88;;;;;;;-145.79;40.23;77086.91;5240737;28;20095;-70
2023/05/20 13:36:44;;;;;;;3.65;2.40;;;;;;;-145.79;39.87;77076.31;5238184;28;20032;-68
2023/05/20 13:39:15;;;;;;;26.40;17.10;;;;;;;-145.79;39.64;77084.78;5240174;28;20025;-69
2023/05/20 13:41:47;;;;;;;3.92;2.90;;;;;;;-145.79;39.67;77076.31;5237353;28;20049;-68
2023/05/20 13:44:18;;;;;;;5.15;2.58;;;;;;;-145.79;39.73;77089.00;5242278;28;20028;-69
2023/05/20 13:46:50;;;;;;;4.90;3.10;;;;;;;-145.79;39.45;77086.91;5240785;28;20079;-68
2023/05/20 13:49:21;;;;;;;4.03;3.13;;;;;;;-145.79;39.98;77084.78;5238220;28;20018;-70
2023/05/20 13:51:52;;;;;;;4.75;2.47;;;;;;;-145.79;40.12;77089.00;5241998;28;20037;-70
2023/05/20 13:54:24;;;;;;;5.30;4.68;;;;;;;-145.79;39.62;77105.97;5239218;28;20118;-70
2023/05/20 13:56:56;;;;;;;5.35;3.95;;;;;;;-145.79;39.69;77097.50;5236413;28;20511;-71
2023/05/20 13:59:28;;;;;;;3.83;2.80;;;;;;;-145.79;40.87;77108.09;5236606;28;20095;-69
2023/05/20 14:01:59;;;;;;;3.92;2.60;;;;;;;-145.79;39.89;77101.72;5241086;28;20025;-68
2023/05/20 14:04:36;;;;;;;2.80;2.60;;;;;;;-145.79;39.42;77074.19;5240953;28;20017;-70
2023/05/20 14:07:08;;;;;;;5.47;2.53;;;;;;;-145.79;39.72;77063.59;5237414;28;20033;-68
2023/05/20 14:09:41;;;;;;;4.80;2.78;;;;;;;-145.79;38.98;77093.25;5234914;28;20025;-69
2023/05/20 14:12:13;;;;;;;2.33;2.08;;;;;;;-145.79;39.41;77089.00;5238533;28;20156;-70
2023/05/20 14:14:44;;;;;;;5.20;3.42;;;;;;;-145.79;38.97;77082.66;5236083;28;20388;-70
2023/05/20 14:17:15;;;;;;;3.00;2.70;;;;;;;-145.79;40.07;77078.41;5240164;28;20017;-69
2023/05/20 14:19:47;;;;;;;2.92;2.33;;;;;;;-145.79;39.49;77082.66;5239859;28;20021;-70
2023/05/20 14:22:18;;;;;;;5.72;2.95;;;;;;;-145.79;39.65;77078.41;5241395;28;20132;-68
2023/05/20 14:24:50;;;;;;;3.38;2.80;;;;;;;-145.79;39.50;77072.06;5241081;28;20063;-68
2023/05/20 14:27:21;;;;;;;4.07;2.20;;;;;;;-145.79;40.53;77072.06;5237962;28;20025;-68
2023/05/20 14:29:52;;;;;;;5.53;2.45;;;;;;;-145.79;39.20;77059.34;5239657;28;20503;-70
2023/05/20 14:32:23;;;;;;;2.42;2.20;;;;;;;-145.79;39.06;77042.38;5232466;28;20381;-69
2023/05/20 14:34:55;;;;;;;4.60;3.22;;;;;;;-145.79;38.92;77057.22;5241486;28;20069;-70
2023/05/20 14:37:26;;;;;;;3.15;2.67;;;;;;;-145.79;39.45;77059.34;5240847;28;20078;-69
2023/05/20 14:39:58;;;;;;;3.72;2.70;;;;;;;-145.79;39.23;77052.97;5237411;28;20025;-68
2023/05/20 14:42:29;;;;;;;4.85;2.28;;;;;;;-145.79;39.75;77065.69;5239791;28;20107;-69
2023/05/20 14:45:00;;;;;;;4.82;2.75;;;;;;;-145.79;39.36;77072.06;5238397;28;20102;-69
2023/05/20 14:47:35;;;;;;;4.45;2.88;;;;;;;-145.79;39.23;77065.69;5239190;28;20385;-69
2023/05/20 14:50:10;;;;;;;4.97;3.30;;;;;;;-145.79;39.44;77072.06;5229679;28;20067;-72
2023/05/20 14:52:41;;;;;;;5.50;3.20;;;;;;;-145.79;39.23;77072.06;5236313;28;20167;-70
2023/05/20 14:55:12;;;;;;;3.25;2.95;;;;;;;-145.79;39.33;77067.81;5235687;28;20487;-68
2023/05/20 14:57:47;;;;;;;4.70;2.97;;;;;;;-145.79;39.44;77065.69;5238834;28;20488;-68
2023/05/20 15:00:18;;;;;;;4.10;3.00;;;;;;;-145.79;39.57;77059.34;5237005;28;20025;-68
2023/05/20 15:02:50;;;;;;;2.90;2.47;;;;;;;-145.79;39.00;77059.34;5238103;28;20548;-69
2023/05/20 15:05:21;;;;;;;4.22;2.90;;;;;;;-145.79;39.36;77055.09;5235775;28;20476;-69
2023/05/20 15:07:52;;;;;;;4.15;2.60;;;;;;;-145.79;39.45;77046.63;5236222;28;20017;-69
2023/05/20 15:10:26;;;;;;;4.45;2.55;;;;;;;-145.79;39.98;77046.63;5240241;28;20497;-68
2023/05/20 15:12:57;;;;;;;3.83;3.08;;;;;;;-145.79;39.26;77059.34;5239778;28;20100;-70
2023/05/20 15:15:29;;;;;;;3.10;2.35;;;;;;;-145.79;38.97;77059.34;5236576;28;20503;-68
2023/05/20 15:18:00;;;;;;;4.05;3.03;;;;;;;-145.79;39.42;77059.34;5234764;28;20376;-69
2023/05/20 15:20:31;;;;;;;27.83;21.40;;;;;;;-145.79;39.64;77042.38;5235929;28;20040;-70
2023/05/20 15:23:03;;;;;;;6.57;4.70;;;;;;;-145.79;39.50;77044.50;5237044;28;20501;-69
2023/05/20 15:25:34;;;;;;;3.40;2.47;;;;;;;-145.79;39.17;77044.50;5237427;28;20059;-69
2023/05/20 15:28:05;;;;;;;4.68;2.38;;;;;;;-145.79;38.95;77046.63;5236956;28;20048;-69
2023/05/20 15:30:37;;;;;;;4.78;2.40;;;;;;;-145.79;38.89;77050.88;5240029;28;20116;-70
2023/05/20 15:33:08;;;;;;;4.03;2.30;;;;;;;-145.79;38.90;77050.88;5240980;28;20026;-70
2023/05/20 15:35:39;;;;;;;4.13;2.97;;;;;;;-145.79;39.06;77040.25;5238974;28;20022;-68
2023/05/20 15:38:10;;;;;;;5.82;4.13;;;;;;;-145.79;39.46;77033.91;5238079;28;20561;-69
2023/05/20 15:40:42;;;;;;;3.30;2.50;;;;;;;-145.79;39.48;77055.09;5239613;28;20013;-67
2023/05/20 15:43:13;;;;;;;5.38;3.15;;;;;;;-145.79;39.23;77055.09;5241369;28;20021;-68
2023/05/20 15:45:48;;;;;;;6.55;2.60;;;;;;;-145.79;39.62;77059.34;5244913;28;20026;-71
2023/05/20 15:48:19;;;;;;;38.97;35.25;;;;;;;-145.79;39.24;77046.63;5243638;28;20024;-72
2023/05/20 15:50:51;;;;;;;6.50;3.92;;;;;;;-145.79;39.23;77050.88;5243840;28;20030;-70
2023/05/20 15:53:22;;;;;;;5.70;2.88;;;;;;;-145.79;39.06;77042.38;5244321;28;20543;-75
2023/05/20 15:55:53;;;;;;;3.05;2.70;;;;;;;-145.79;39.03;77025.44;5238337;28;20021;-73
2023/05/20 15:58:25;;;;;;;3.88;2.35;;;;;;;-145.79;38.89;77019.06;5245194;28;20125;-76
2023/05/20 16:00:57;;;;;;;3.40;2.28;;;;;;;-145.79;38.55;77010.59;5245039;28;20084;-77
2023/05/20 16:03:28;;;;;;;6.47;2.45;;;;;;;-145.79;38.89;76995.75;5244498;28;20105;-76
2023/05/20 16:06:01;;;;;;;7.10;2.78;;;;;;;-145.79;38.51;76978.81;5244851;28;20028;-76
2023/05/20 16:08:36;;;;;;;3.20;1.95;;;;;;;-145.79;38.13;76976.69;5246020;28;20030;-75
2023/05/20 16:11:08;;;;;;;;;;;;;;;-145.79;37.93;76970.31;5245575;28;20029;-74
2023/05/20 16:13:39;;;;;;;4.88;2.28;;;;;;;-145.79;38.49;76995.75;5245253;28;20296;-75
2023/05/20 16:16:12;;;;;;;2.45;2.20;;;;;;;-145.79;38.14;76978.81;5243748;28;20029;-75
2023/05/20 16:18:43;;;;;;;3.30;2.25;;;;;;;-145.79;37.92;76968.22;5244605;28;20045;-75
2023/05/20 16:21:15;;;;;;;3.05;2.13;;;;;;;-145.79;38.08;76966.09;5244150;28;20086;-75
2023/05/20 16:23:46;;;;;;;6.75;2.58;;;;;;;-145.79;38.00;76985.16;5244147;28;20484;-75
2023/05/20 16:26:17;;;;;;;4.75;3.17;;;;;;;-145.79;37.98;77004.25;5244924;28;20039;-75
2023/05/20 16:28:49;;;;;;;3.80;2.00;;;;;;;-145.79;38.15;76991.53;5242902;28;20030;-75
2023/05/20 16:31:21;;;;;;;3.85;2.13;;;;;;;-145.79;38.18;76991.53;5240639;28;20044;-73
2023/05/20 16:33:52;;;;;;;5.40;2.40;;;;;;;-145.79;37.94;76980.94;5244850;28;20453;-74
2023/05/20 16:36:24;;;;;;;2.92;1.92;;;;;;;-145.79;37.72;76953.38;5244249;28;20017;-70
2023/05/20 16:38:55;;;;;;;3.33;2.33;;;;;;;-145.79;37.83;76957.59;5242582;28;20101;-70
2023/05/20 16:41:27;;;;;;;2.95;2.53;;;;;;;-145.79;37.46;76930.06;5243958;28;20083;-71
2023/05/20 16:43:58;;;;;;;3.00;2.33;;;;;;;-145.79;36.60;76913.09;5240871;28;20116;-70
2023/05/20 16:46:30;;;;;;;7.05;2.03;;;;;;;-145.79;36.96;76889.78;5241482;28;20400;-69
2023/05/20 16:49:01;;;;;;;2.90;1.80;;;;;;;-145.79;36.59;76885.56;5242598;28;20052;-70
2023/05/20 16:51:32;;;;;;;2.10;1.90;;;;;;;-145.79;36.22;76889.78;5240428;28;20033;-69
2023/05/20 16:54:04;;;;;;;5.65;1.98;;;;;;;-145.79;36.07;76898.25;5239630;28;20112;-71
